sensor_id;sensor_type;location;lat;lon;timestamp;temperature;humidity
4840;DHT22;2434;48.486;7.964;2022-10-16T00:01:16;17.80;82.50
4840;DHT22;2434;48.486;7.964;2022-10-16T00:03:47;17.40;85.00
4840;DHT22;2434;48.486;7.964;2022-10-16T00:06:16;17.50;84.60
4840;DHT22;2434;48.486;7.964;2022-10-16T00:08:46;17.50;84.60
4840;DHT22;2434;48.486;7.964;2022-10-16T00:11:16;17.60;84.40
4840;DHT22;2434;48.486;7.964;2022-10-16T00:13:46;17.70;83.70
4840;DHT22;2434;48.486;7.964;2022-10-16T00:16:15;17.70;83.30
4840;DHT22;2434;48.486;7.964;2022-10-16T00:18:45;17.70;83.20
4840;DHT22;2434;48.486;7.964;2022-10-16T00:21:17;17.70;83.00
4840;DHT22;2434;48.486;7.964;2022-10-16T00:23:45;17.70;83.40
4840;DHT22;2434;48.486;7.964;2022-10-16T00:26:16;17.20;86.50
4840;DHT22;2434;48.486;7.964;2022-10-16T00:28:46;16.80;89.40
4840;DHT22;2434;48.486;7.964;2022-10-16T00:31:15;16.50;92.40
4840;DHT22;2434;48.486;7.964;2022-10-16T00:33:43;16.30;94.10
4840;DHT22;2434;48.486;7.964;2022-10-16T00:36:16;16.40;93.70
4840;DHT22;2434;48.486;7.964;2022-10-16T00:38:46;16.60;92.50
4840;DHT22;2434;48.486;7.964;2022-10-16T00:41:16;16.80;90.50
4840;DHT22;2434;48.486;7.964;2022-10-16T00:43:49;17.00;89.60
4840;DHT22;2434;48.486;7.964;2022-10-16T00:46:19;16.90;89.80
4840;DHT22;2434;48.486;7.964;2022-10-16T00:48:52;16.90;89.80
4840;DHT22;2434;48.486;7.964;2022-10-16T00:51:27;16.70;91.50
4840;DHT22;2434;48.486;7.964;2022-10-16T00:53:56;16.60;92.70
4840;DHT22;2434;48.486;7.964;2022-10-16T00:56:25;16.60;92.10
4840;DHT22;2434;48.486;7.964;2022-10-16T00:58:53;16.80;91.10
4840;DHT22;2434;48.486;7.964;2022-10-16T01:01:21;16.90;89.90
4840;DHT22;2434;48.486;7.964;2022-10-16T01:03:50;16.80;89.70
4840;DHT22;2434;48.486;7.964;2022-10-16T01:06:33;17.00;88.90
4840;DHT22;2434;48.486;7.964;2022-10-16T01:09:13;16.90;89.50
4840;DHT22;2434;48.486;7.964;2022-10-16T01:11:49;16.90;89.00
4840;DHT22;2434;48.486;7.964;2022-10-16T01:14:25;16.90;89.50
4840;DHT22;2434;48.486;7.964;2022-10-16T01:17:00;16.90;89.80
4840;DHT22;2434;48.486;7.964;2022-10-16T01:19:44;17.00;88.70
4840;DHT22;2434;48.486;7.964;2022-10-16T01:22:20;17.20;87.60
4840;DHT22;2434;48.486;7.964;2022-10-16T01:24:55;17.30;86.60
4840;DHT22;2434;48.486;7.964;2022-10-16T01:27:30;17.30;86.60
4840;DHT22;2434;48.486;7.964;2022-10-16T01:30:04;17.40;85.70
4840;DHT22;2434;48.486;7.964;2022-10-16T01:32:37;17.40;85.40
4840;DHT22;2434;48.486;7.964;2022-10-16T01:35:10;17.30;86.20
4840;DHT22;2434;48.486;7.964;2022-10-16T01:37:48;17.30;86.00
4840;DHT22;2434;48.486;7.964;2022-10-16T01:40:19;17.20;86.10
4840;DHT22;2434;48.486;7.964;2022-10-16T01:42:52;17.30;85.50
4840;DHT22;2434;48.486;7.964;2022-10-16T01:45:23;17.30;85.80
4840;DHT22;2434;48.486;7.964;2022-10-16T01:47:52;17.10;87.20
4840;DHT22;2434;48.486;7.964;2022-10-16T01:50:21;17.10;87.20
4840;DHT22;2434;48.486;7.964;2022-10-16T01:52:52;17.20;86.80
4840;DHT22;2434;48.486;7.964;2022-10-16T01:55:25;17.20;85.60
4840;DHT22;2434;48.486;7.964;2022-10-16T01:57:58;17.20;85.70
4840;DHT22;2434;48.486;7.964;2022-10-16T02:00:28;17.10;86.00
4840;DHT22;2434;48.486;7.964;2022-10-16T02:02:59;17.10;86.00
4840;DHT22;2434;48.486;7.964;2022-10-16T02:05:32;16.90;86.90
4840;DHT22;2434;48.486;7.964;2022-10-16T02:08:02;16.80;88.60
4840;DHT22;2434;48.486;7.964;2022-10-16T02:10:32;16.90;87.90
4840;DHT22;2434;48.486;7.964;2022-10-16T02:13:05;16.80;88.50
4840;DHT22;2434;48.486;7.964;2022-10-16T02:15:34;16.50;89.70
4840;DHT22;2434;48.486;7.964;2022-10-16T02:18:04;16.40;91.20
4840;DHT22;2434;48.486;7.964;2022-10-16T02:20:36;16.30;93.00
4840;DHT22;2434;48.486;7.964;2022-10-16T02:23:12;16.20;92.20
4840;DHT22;2434;48.486;7.964;2022-10-16T02:25:46;16.20;93.20
4840;DHT22;2434;48.486;7.964;2022-10-16T02:28:19;16.20;93.00
4840;DHT22;2434;48.486;7.964;2022-10-16T02:30:55;16.40;90.90
4840;DHT22;2434;48.486;7.964;2022-10-16T02:33:25;16.40;90.90
4840;DHT22;2434;48.486;7.964;2022-10-16T02:35:56;16.60;90.10
4840;DHT22;2434;48.486;7.964;2022-10-16T02:38:26;16.80;88.60
4840;DHT22;2434;48.486;7.964;2022-10-16T02:40:57;16.90;86.80
4840;DHT22;2434;48.486;7.964;2022-10-16T02:43:27;16.80;87.30
4840;DHT22;2434;48.486;7.964;2022-10-16T02:45:55;16.40;91.00
4840;DHT22;2434;48.486;7.964;2022-10-16T02:48:24;16.10;93.00
4840;DHT22;2434;48.486;7.964;2022-10-16T02:50:52;16.00;93.30
4840;DHT22;2434;48.486;7.964;2022-10-16T02:53:20;16.00;93.50
4840;DHT22;2434;48.486;7.964;2022-10-16T02:55:49;16.10;92.80
4840;DHT22;2434;48.486;7.964;2022-10-16T02:58:17;16.20;91.90
4840;DHT22;2434;48.486;7.964;2022-10-16T03:00:47;16.30;91.10
4840;DHT22;2434;48.486;7.964;2022-10-16T03:03:15;16.30;91.40
4840;DHT22;2434;48.486;7.964;2022-10-16T03:05:44;16.30;91.20
4840;DHT22;2434;48.486;7.964;2022-10-16T03:08:13;16.50;90.10
4840;DHT22;2434;48.486;7.964;2022-10-16T03:10:42;16.40;90.00
4840;DHT22;2434;48.486;7.964;2022-10-16T03:13:10;16.20;91.10
4840;DHT22;2434;48.486;7.964;2022-10-16T03:15:38;16.30;91.40
4840;DHT22;2434;48.486;7.964;2022-10-16T03:18:08;16.30;90.90
4840;DHT22;2434;48.486;7.964;2022-10-16T03:20:36;16.40;91.50
4840;DHT22;2434;48.486;7.964;2022-10-16T03:23:06;16.30;91.20
4840;DHT22;2434;48.486;7.964;2022-10-16T03:25:35;16.50;89.90
4840;DHT22;2434;48.486;7.964;2022-10-16T03:28:03;16.60;88.60
4840;DHT22;2434;48.486;7.964;2022-10-16T03:30:32;16.40;89.90
4840;DHT22;2434;48.486;7.964;2022-10-16T03:33:00;16.50;90.10
4840;DHT22;2434;48.486;7.964;2022-10-16T03:35:31;16.20;90.40
4840;DHT22;2434;48.486;7.964;2022-10-16T03:37:59;16.30;91.00
4840;DHT22;2434;48.486;7.964;2022-10-16T03:40:28;16.50;89.60
4840;DHT22;2434;48.486;7.964;2022-10-16T03:42:58;16.70;88.30
4840;DHT22;2434;48.486;7.964;2022-10-16T03:45:27;16.80;87.60
4840;DHT22;2434;48.486;7.964;2022-10-16T03:47:55;16.90;86.90
4840;DHT22;2434;48.486;7.964;2022-10-16T03:50:24;17.00;86.30
4840;DHT22;2434;48.486;7.964;2022-10-16T03:52:53;16.90;86.80
4840;DHT22;2434;48.486;7.964;2022-10-16T03:55:22;17.00;85.90
4840;DHT22;2434;48.486;7.964;2022-10-16T03:57:50;16.90;86.60
4840;DHT22;2434;48.486;7.964;2022-10-16T04:00:19;16.70;87.20
4840;DHT22;2434;48.486;7.964;2022-10-16T04:02:47;16.40;89.60
4840;DHT22;2434;48.486;7.964;2022-10-16T04:05:15;16.60;87.80
4840;DHT22;2434;48.486;7.964;2022-10-16T04:07:44;16.80;86.60
4840;DHT22;2434;48.486;7.964;2022-10-16T04:10:14;16.80;85.70
4840;DHT22;2434;48.486;7.964;2022-10-16T04:12:42;16.60;86.80
4840;DHT22;2434;48.486;7.964;2022-10-16T04:15:10;16.80;85.70
4840;DHT22;2434;48.486;7.964;2022-10-16T04:17:39;16.70;85.50
4840;DHT22;2434;48.486;7.964;2022-10-16T04:20:08;16.50;86.10
4840;DHT22;2434;48.486;7.964;2022-10-16T04:22:36;16.10;89.90
4840;DHT22;2434;48.486;7.964;2022-10-16T04:25:08;15.90;90.50
4840;DHT22;2434;48.486;7.964;2022-10-16T04:27:38;15.70;91.00
4840;DHT22;2434;48.486;7.964;2022-10-16T04:30:11;15.70;92.20
4840;DHT22;2434;48.486;7.964;2022-10-16T04:32:41;15.60;92.70
4840;DHT22;2434;48.486;7.964;2022-10-16T04:35:09;15.40;93.10
4840;DHT22;2434;48.486;7.964;2022-10-16T04:37:38;15.50;92.90
4840;DHT22;2434;48.486;7.964;2022-10-16T04:40:07;15.60;92.80
4840;DHT22;2434;48.486;7.964;2022-10-16T04:42:39;15.70;93.50
4840;DHT22;2434;48.486;7.964;2022-10-16T04:45:08;15.70;92.10
4840;DHT22;2434;48.486;7.964;2022-10-16T04:47:43;15.90;90.00
4840;DHT22;2434;48.486;7.964;2022-10-16T04:50:11;16.00;89.20
4840;DHT22;2434;48.486;7.964;2022-10-16T04:52:39;16.00;87.40
4840;DHT22;2434;48.486;7.964;2022-10-16T04:55:08;15.60;89.70
4840;DHT22;2434;48.486;7.964;2022-10-16T04:57:38;15.30;92.40
4840;DHT22;2434;48.486;7.964;2022-10-16T05:00:10;15.50;91.90
4840;DHT22;2434;48.486;7.964;2022-10-16T05:02:45;15.70;89.90
4840;DHT22;2434;48.486;7.964;2022-10-16T05:05:14;15.80;89.60
4840;DHT22;2434;48.486;7.964;2022-10-16T05:08:11;15.70;91.30
4840;DHT22;2434;48.486;7.964;2022-10-16T05:10:47;15.60;92.70
4840;DHT22;2434;48.486;7.964;2022-10-16T05:13:19;15.40;94.20
4840;DHT22;2434;48.486;7.964;2022-10-16T05:15:57;15.30;95.80
4840;DHT22;2434;48.486;7.964;2022-10-16T05:18:26;15.40;95.80
4840;DHT22;2434;48.486;7.964;2022-10-16T05:20:56;15.30;96.10
4840;DHT22;2434;48.486;7.964;2022-10-16T05:23:25;15.30;96.10
4840;DHT22;2434;48.486;7.964;2022-10-16T05:25:58;15.40;96.50
4840;DHT22;2434;48.486;7.964;2022-10-16T05:28:29;15.50;94.60
4840;DHT22;2434;48.486;7.964;2022-10-16T05:30:58;15.70;93.20
4840;DHT22;2434;48.486;7.964;2022-10-16T05:33:29;15.70;93.00
4840;DHT22;2434;48.486;7.964;2022-10-16T05:36:01;15.90;91.90
4840;DHT22;2434;48.486;7.964;2022-10-16T05:38:32;15.80;92.70
4840;DHT22;2434;48.486;7.964;2022-10-16T05:41:06;15.90;91.50
4840;DHT22;2434;48.486;7.964;2022-10-16T05:43:38;15.90;91.30
4840;DHT22;2434;48.486;7.964;2022-10-16T05:46:06;16.00;90.90
4840;DHT22;2434;48.486;7.964;2022-10-16T05:48:35;16.00;90.90
4840;DHT22;2434;48.486;7.964;2022-10-16T05:51:05;16.10;90.50
4840;DHT22;2434;48.486;7.964;2022-10-16T05:53:35;16.00;91.00
4840;DHT22;2434;48.486;7.964;2022-10-16T05:56:05;16.00;91.20
4840;DHT22;2434;48.486;7.964;2022-10-16T05:58:35;15.90;91.80
4840;DHT22;2434;48.486;7.964;2022-10-16T06:01:12;16.00;91.00
4840;DHT22;2434;48.486;7.964;2022-10-16T06:03:41;16.10;90.80
4840;DHT22;2434;48.486;7.964;2022-10-16T06:06:11;16.00;91.20
4840;DHT22;2434;48.486;7.964;2022-10-16T06:08:41;16.00;90.90
4840;DHT22;2434;48.486;7.964;2022-10-16T06:11:11;16.10;90.70
4840;DHT22;2434;48.486;7.964;2022-10-16T06:13:39;16.20;89.50
4840;DHT22;2434;48.486;7.964;2022-10-16T06:16:36;16.20;89.60
4840;DHT22;2434;48.486;7.964;2022-10-16T06:19:11;16.10;89.90
4840;DHT22;2434;48.486;7.964;2022-10-16T06:21:43;16.20;89.30
4840;DHT22;2434;48.486;7.964;2022-10-16T06:24:11;16.30;89.00
4840;DHT22;2434;48.486;7.964;2022-10-16T06:26:40;16.30;88.70
4840;DHT22;2434;48.486;7.964;2022-10-16T06:29:08;16.40;88.00
4840;DHT22;2434;48.486;7.964;2022-10-16T06:31:40;16.40;87.60
4840;DHT22;2434;48.486;7.964;2022-10-16T06:34:09;16.40;87.50
4840;DHT22;2434;48.486;7.964;2022-10-16T06:36:38;16.40;87.50
4840;DHT22;2434;48.486;7.964;2022-10-16T06:39:06;16.40;87.30
4840;DHT22;2434;48.486;7.964;2022-10-16T06:41:35;16.40;87.70
4840;DHT22;2434;48.486;7.964;2022-10-16T06:44:14;16.40;87.60
4840;DHT22;2434;48.486;7.964;2022-10-16T06:46:44;16.50;87.60
4840;DHT22;2434;48.486;7.964;2022-10-16T06:49:12;16.50;87.50
4840;DHT22;2434;48.486;7.964;2022-10-16T06:51:42;16.50;87.30
4840;DHT22;2434;48.486;7.964;2022-10-16T06:54:10;16.60;87.20
4840;DHT22;2434;48.486;7.964;2022-10-16T06:56:40;16.60;87.10
4840;DHT22;2434;48.486;7.964;2022-10-16T06:59:08;16.30;88.70
4840;DHT22;2434;48.486;7.964;2022-10-16T07:01:36;15.80;92.30
4840;DHT22;2434;48.486;7.964;2022-10-16T07:04:06;15.60;94.80
4840;DHT22;2434;48.486;7.964;2022-10-16T07:06:34;15.60;96.10
4840;DHT22;2434;48.486;7.964;2022-10-16T07:09:05;15.50;96.60
4840;DHT22;2434;48.486;7.964;2022-10-16T07:11:34;15.80;95.10
4840;DHT22;2434;48.486;7.964;2022-10-16T07:14:04;16.00;92.40
4840;DHT22;2434;48.486;7.964;2022-10-16T07:16:33;16.20;91.70
4840;DHT22;2434;48.486;7.964;2022-10-16T07:19:02;16.30;89.60
4840;DHT22;2434;48.486;7.964;2022-10-16T07:21:33;16.40;88.50
4840;DHT22;2434;48.486;7.964;2022-10-16T07:24:04;16.50;88.40
4840;DHT22;2434;48.486;7.964;2022-10-16T07:26:34;16.50;86.90
4840;DHT22;2434;48.486;7.964;2022-10-16T07:29:02;16.60;86.70
4840;DHT22;2434;48.486;7.964;2022-10-16T07:31:31;16.60;87.10
4840;DHT22;2434;48.486;7.964;2022-10-16T07:34:01;16.60;87.70
4840;DHT22;2434;48.486;7.964;2022-10-16T07:36:29;16.70;88.10
4840;DHT22;2434;48.486;7.964;2022-10-16T07:38:58;16.70;88.10
4840;DHT22;2434;48.486;7.964;2022-10-16T07:41:27;16.70;87.60
4840;DHT22;2434;48.486;7.964;2022-10-16T07:43:56;16.70;87.30
4840;DHT22;2434;48.486;7.964;2022-10-16T07:46:27;16.70;87.90
4840;DHT22;2434;48.486;7.964;2022-10-16T07:48:56;16.70;87.70
4840;DHT22;2434;48.486;7.964;2022-10-16T07:51:25;16.70;88.10
4840;DHT22;2434;48.486;7.964;2022-10-16T07:53:54;16.70;88.00
4840;DHT22;2434;48.486;7.964;2022-10-16T07:56:23;16.70;87.70
4840;DHT22;2434;48.486;7.964;2022-10-16T07:58:53;16.70;87.90
4840;DHT22;2434;48.486;7.964;2022-10-16T08:01:21;16.80;87.30
4840;DHT22;2434;48.486;7.964;2022-10-16T08:03:50;16.60;88.40
4840;DHT22;2434;48.486;7.964;2022-10-16T08:06:20;16.50;90.60
4840;DHT22;2434;48.486;7.964;2022-10-16T08:08:54;16.40;91.60
4840;DHT22;2434;48.486;7.964;2022-10-16T08:11:24;16.50;91.00
4840;DHT22;2434;48.486;7.964;2022-10-16T08:13:53;16.60;90.50
4840;DHT22;2434;48.486;7.964;2022-10-16T08:16:21;16.60;90.20
4840;DHT22;2434;48.486;7.964;2022-10-16T08:18:50;16.40;92.50
4840;DHT22;2434;48.486;7.964;2022-10-16T08:21:20;16.30;94.30
4840;DHT22;2434;48.486;7.964;2022-10-16T08:23:50;16.30;95.50
4840;DHT22;2434;48.486;7.964;2022-10-16T08:26:25;16.20;97.30
4840;DHT22;2434;48.486;7.964;2022-10-16T08:28:54;16.20;97.10
4840;DHT22;2434;48.486;7.964;2022-10-16T08:31:23;16.30;96.70
4840;DHT22;2434;48.486;7.964;2022-10-16T08:33:53;16.30;96.40
4840;DHT22;2434;48.486;7.964;2022-10-16T08:36:21;16.50;95.40
4840;DHT22;2434;48.486;7.964;2022-10-16T08:38:50;16.60;95.40
4840;DHT22;2434;48.486;7.964;2022-10-16T08:44:49;16.70;91.80
4840;DHT22;2434;48.486;7.964;2022-10-16T08:47:24;16.80;91.00
4840;DHT22;2434;48.486;7.964;2022-10-16T08:49:57;17.00;82.80
4840;DHT22;2434;48.486;7.964;2022-10-16T08:52:29;17.30;81.00
4840;DHT22;2434;48.486;7.964;2022-10-16T08:54:58;17.50;81.90
4840;DHT22;2434;48.486;7.964;2022-10-16T08:57:27;17.50;90.00
4840;DHT22;2434;48.486;7.964;2022-10-16T08:59:59;17.40;93.60
4840;DHT22;2434;48.486;7.964;2022-10-16T09:02:32;17.30;94.50
4840;DHT22;2434;48.486;7.964;2022-10-16T09:05:21;17.30;94.60
4840;DHT22;2434;48.486;7.964;2022-10-16T09:07:59;17.40;93.40
4840;DHT22;2434;48.486;7.964;2022-10-16T09:10:41;17.40;86.20
4840;DHT22;2434;48.486;7.964;2022-10-16T09:13:19;17.70;83.20
4840;DHT22;2434;48.486;7.964;2022-10-16T09:15:58;17.80;80.70
4840;DHT22;2434;48.486;7.964;2022-10-16T09:18:34;18.10;77.70
4840;DHT22;2434;48.486;7.964;2022-10-16T09:21:09;18.30;74.60
4840;DHT22;2434;48.486;7.964;2022-10-16T09:23:39;18.50;73.50
4840;DHT22;2434;48.486;7.964;2022-10-16T09:26:11;18.80;74.90
4840;DHT22;2434;48.486;7.964;2022-10-16T09:28:40;19.00;71.50
4840;DHT22;2434;48.486;7.964;2022-10-16T09:31:16;19.20;71.30
4840;DHT22;2434;48.486;7.964;2022-10-16T09:33:48;19.40;67.40
4840;DHT22;2434;48.486;7.964;2022-10-16T09:36:18;19.40;68.40
4840;DHT22;2434;48.486;7.964;2022-10-16T09:38:47;19.50;66.80
4840;DHT22;2434;48.486;7.964;2022-10-16T09:41:18;19.50;67.40
4840;DHT22;2434;48.486;7.964;2022-10-16T09:43:49;19.60;67.30
4840;DHT22;2434;48.486;7.964;2022-10-16T09:46:27;19.60;67.10
4840;DHT22;2434;48.486;7.964;2022-10-16T09:48:57;19.60;66.50
4840;DHT22;2434;48.486;7.964;2022-10-16T09:51:28;19.60;67.10
4840;DHT22;2434;48.486;7.964;2022-10-16T09:53:59;19.40;68.70
4840;DHT22;2434;48.486;7.964;2022-10-16T09:56:29;19.40;70.10
4840;DHT22;2434;48.486;7.964;2022-10-16T09:59:01;19.30;72.10
4840;DHT22;2434;48.486;7.964;2022-10-16T10:01:36;19.20;73.40
4840;DHT22;2434;48.486;7.964;2022-10-16T10:04:06;19.30;72.40
4840;DHT22;2434;48.486;7.964;2022-10-16T10:06:36;19.20;73.30
4840;DHT22;2434;48.486;7.964;2022-10-16T10:09:15;19.20;73.40
4840;DHT22;2434;48.486;7.964;2022-10-16T10:11:50;19.20;73.10
4840;DHT22;2434;48.486;7.964;2022-10-16T10:14:28;19.20;73.00
4840;DHT22;2434;48.486;7.964;2022-10-16T10:17:19;19.20;75.20
4840;DHT22;2434;48.486;7.964;2022-10-16T10:19:50;19.20;74.40
4840;DHT22;2434;48.486;7.964;2022-10-16T10:22:23;19.30;74.80
4840;DHT22;2434;48.486;7.964;2022-10-16T10:24:57;19.20;76.00
4840;DHT22;2434;48.486;7.964;2022-10-16T10:27:34;19.30;77.10
4840;DHT22;2434;48.486;7.964;2022-10-16T10:30:13;19.30;74.40
4840;DHT22;2434;48.486;7.964;2022-10-16T10:33:02;19.40;77.30
4840;DHT22;2434;48.486;7.964;2022-10-16T10:35:40;19.40;76.00
4840;DHT22;2434;48.486;7.964;2022-10-16T10:38:30;19.40;75.60
4840;DHT22;2434;48.486;7.964;2022-10-16T10:41:14;19.50;74.60
4840;DHT22;2434;48.486;7.964;2022-10-16T10:43:55;19.40;75.70
4840;DHT22;2434;48.486;7.964;2022-10-16T10:46:34;19.60;77.40
4840;DHT22;2434;48.486;7.964;2022-10-16T10:49:28;19.50;76.30
4840;DHT22;2434;48.486;7.964;2022-10-16T10:52:10;19.50;75.10
4840;DHT22;2434;48.486;7.964;2022-10-16T10:54:47;19.50;76.10
4840;DHT22;2434;48.486;7.964;2022-10-16T10:57:30;19.50;76.20
4840;DHT22;2434;48.486;7.964;2022-10-16T11:00:12;19.50;76.20
4840;DHT22;2434;48.486;7.964;2022-10-16T11:02:48;19.40;77.00
4840;DHT22;2434;48.486;7.964;2022-10-16T11:05:28;19.40;76.80
4840;DHT22;2434;48.486;7.964;2022-10-16T11:08:02;19.50;78.40
4840;DHT22;2434;48.486;7.964;2022-10-16T11:10:37;19.60;78.80
4840;DHT22;2434;48.486;7.964;2022-10-16T11:13:17;19.50;79.30
4840;DHT22;2434;48.486;7.964;2022-10-16T11:15:51;19.50;79.00
4840;DHT22;2434;48.486;7.964;2022-10-16T11:18:26;19.50;78.80
4840;DHT22;2434;48.486;7.964;2022-10-16T11:21:02;19.60;79.10
4840;DHT22;2434;48.486;7.964;2022-10-16T11:23:37;19.60;79.20
4840;DHT22;2434;48.486;7.964;2022-10-16T11:26:13;19.80;81.20
4840;DHT22;2434;48.486;7.964;2022-10-16T11:28:46;19.90;79.10
4840;DHT22;2434;48.486;7.964;2022-10-16T11:31:19;19.90;78.50
4840;DHT22;2434;48.486;7.964;2022-10-16T11:33:55;20.10;78.10
4840;DHT22;2434;48.486;7.964;2022-10-16T11:36:32;20.20;77.90
4840;DHT22;2434;48.486;7.964;2022-10-16T11:39:07;20.40;76.20
4840;DHT22;2434;48.486;7.964;2022-10-16T11:41:43;20.50;74.40
4840;DHT22;2434;48.486;7.964;2022-10-16T11:44:26;20.60;74.20
4840;DHT22;2434;48.486;7.964;2022-10-16T11:47:05;20.70;74.70
4840;DHT22;2434;48.486;7.964;2022-10-16T11:49:59;20.80;73.40
4840;DHT22;2434;48.486;7.964;2022-10-16T11:52:35;20.90;73.50
4840;DHT22;2434;48.486;7.964;2022-10-16T11:55:13;21.00;73.40
4840;DHT22;2434;48.486;7.964;2022-10-16T11:57:45;21.00;72.40
4840;DHT22;2434;48.486;7.964;2022-10-16T12:00:21;21.10;72.10
4840;DHT22;2434;48.486;7.964;2022-10-16T12:02:56;21.20;71.40
4840;DHT22;2434;48.486;7.964;2022-10-16T12:05:35;21.20;71.60
4840;DHT22;2434;48.486;7.964;2022-10-16T12:08:11;21.30;68.80
4840;DHT22;2434;48.486;7.964;2022-10-16T12:10:42;21.40;67.70
4840;DHT22;2434;48.486;7.964;2022-10-16T12:13:31;21.40;68.40
4840;DHT22;2434;48.486;7.964;2022-10-16T12:16:19;21.50;68.00
4840;DHT22;2434;48.486;7.964;2022-10-16T12:18:48;21.60;68.40
4840;DHT22;2434;48.486;7.964;2022-10-16T12:21:17;21.30;67.30
4840;DHT22;2434;48.486;7.964;2022-10-16T12:23:50;21.10;68.20
4840;DHT22;2434;48.486;7.964;2022-10-16T12:26:25;21.10;70.30
4840;DHT22;2434;48.486;7.964;2022-10-16T12:28:55;21.10;73.40
4840;DHT22;2434;48.486;7.964;2022-10-16T12:31:24;21.00;66.00
4840;DHT22;2434;48.486;7.964;2022-10-16T12:34:20;20.90;68.70
4840;DHT22;2434;48.486;7.964;2022-10-16T12:36:50;20.90;67.00
4840;DHT22;2434;48.486;7.964;2022-10-16T12:39:23;21.00;66.10
4840;DHT22;2434;48.486;7.964;2022-10-16T12:42:02;21.00;62.90
4840;DHT22;2434;48.486;7.964;2022-10-16T12:44:35;21.00;59.20
4840;DHT22;2434;48.486;7.964;2022-10-16T12:47:03;21.10;65.10
4840;DHT22;2434;48.486;7.964;2022-10-16T12:49:37;21.30;69.30
4840;DHT22;2434;48.486;7.964;2022-10-16T12:52:25;21.40;69.80
4840;DHT22;2434;48.486;7.964;2022-10-16T12:54:58;21.40;64.40
4840;DHT22;2434;48.486;7.964;2022-10-16T12:57:37;21.40;62.00
4840;DHT22;2434;48.486;7.964;2022-10-16T13:00:16;21.40;63.90
4840;DHT22;2434;48.486;7.964;2022-10-16T13:06:10;21.40;64.40
4840;DHT22;2434;48.486;7.964;2022-10-16T13:09:02;21.40;61.50
4840;DHT22;2434;48.486;7.964;2022-10-16T13:17:26;21.80;58.90
4840;DHT22;2434;48.486;7.964;2022-10-16T13:20:05;21.70;58.40
4840;DHT22;2434;48.486;7.964;2022-10-16T13:22:43;21.70;64.60
4840;DHT22;2434;48.486;7.964;2022-10-16T13:25:22;21.60;63.30
4840;DHT22;2434;48.486;7.964;2022-10-16T13:27:55;21.60;64.30
4840;DHT22;2434;48.486;7.964;2022-10-16T13:30:26;21.50;59.00
4840;DHT22;2434;48.486;7.964;2022-10-16T13:33:00;21.40;60.40
4840;DHT22;2434;48.486;7.964;2022-10-16T13:35:30;21.50;61.20
4840;DHT22;2434;48.486;7.964;2022-10-16T13:38:11;21.50;61.20
4840;DHT22;2434;48.486;7.964;2022-10-16T13:40:52;21.50;57.00
4840;DHT22;2434;48.486;7.964;2022-10-16T13:43:26;21.60;67.20
4840;DHT22;2434;48.486;7.964;2022-10-16T13:45:56;21.80;59.00
4840;DHT22;2434;48.486;7.964;2022-10-16T13:48:25;22.00;55.70
4840;DHT22;2434;48.486;7.964;2022-10-16T13:51:01;22.00;58.30
4840;DHT22;2434;48.486;7.964;2022-10-16T13:53:31;21.90;56.90
4840;DHT22;2434;48.486;7.964;2022-10-16T13:56:01;21.90;60.30
4840;DHT22;2434;48.486;7.964;2022-10-16T13:58:32;21.90;63.30
4840;DHT22;2434;48.486;7.964;2022-10-16T14:01:02;21.90;57.20
4840;DHT22;2434;48.486;7.964;2022-10-16T14:03:32;21.90;61.00
4840;DHT22;2434;48.486;7.964;2022-10-16T14:06:04;21.90;61.00
4840;DHT22;2434;48.486;7.964;2022-10-16T14:08:35;21.90;64.20
4840;DHT22;2434;48.486;7.964;2022-10-16T14:11:04;21.90;64.50
4840;DHT22;2434;48.486;7.964;2022-10-16T14:13:36;21.90;61.60
4840;DHT22;2434;48.486;7.964;2022-10-16T14:16:07;21.90;56.50
4840;DHT22;2434;48.486;7.964;2022-10-16T14:18:38;22.10;54.90
4840;DHT22;2434;48.486;7.964;2022-10-16T14:21:11;22.00;53.30
4840;DHT22;2434;48.486;7.964;2022-10-16T14:23:42;22.00;55.00
4840;DHT22;2434;48.486;7.964;2022-10-16T14:26:16;22.00;56.00
4840;DHT22;2434;48.486;7.964;2022-10-16T14:28:47;22.00;59.20
4840;DHT22;2434;48.486;7.964;2022-10-16T14:31:27;21.90;57.80
4840;DHT22;2434;48.486;7.964;2022-10-16T14:33:56;22.00;57.40
4840;DHT22;2434;48.486;7.964;2022-10-16T14:36:25;22.00;62.70
4840;DHT22;2434;48.486;7.964;2022-10-16T14:38:59;22.10;55.20
4840;DHT22;2434;48.486;7.964;2022-10-16T14:41:30;22.10;54.80
4840;DHT22;2434;48.486;7.964;2022-10-16T14:44:02;22.10;55.90
4840;DHT22;2434;48.486;7.964;2022-10-16T14:46:34;22.10;58.30
4840;DHT22;2434;48.486;7.964;2022-10-16T14:49:12;22.20;58.60
4840;DHT22;2434;48.486;7.964;2022-10-16T14:51:42;22.10;58.90
4840;DHT22;2434;48.486;7.964;2022-10-16T14:54:12;22.00;59.80
4840;DHT22;2434;48.486;7.964;2022-10-16T14:56:47;21.90;61.10
4840;DHT22;2434;48.486;7.964;2022-10-16T14:59:19;21.80;62.20
4840;DHT22;2434;48.486;7.964;2022-10-16T15:01:50;21.70;63.40
4840;DHT22;2434;48.486;7.964;2022-10-16T15:04:18;21.70;62.90
4840;DHT22;2434;48.486;7.964;2022-10-16T15:06:46;21.70;66.50
4840;DHT22;2434;48.486;7.964;2022-10-16T15:09:14;21.70;69.20
4840;DHT22;2434;48.486;7.964;2022-10-16T15:11:43;21.80;67.80
4840;DHT22;2434;48.486;7.964;2022-10-16T15:14:12;22.00;69.10
4840;DHT22;2434;48.486;7.964;2022-10-16T15:16:41;22.10;70.60
4840;DHT22;2434;48.486;7.964;2022-10-16T15:19:10;22.00;67.70
4840;DHT22;2434;48.486;7.964;2022-10-16T15:21:38;22.20;71.40
4840;DHT22;2434;48.486;7.964;2022-10-16T15:24:11;22.40;72.10
4840;DHT22;2434;48.486;7.964;2022-10-16T15:26:45;22.60;70.50
4840;DHT22;2434;48.486;7.964;2022-10-16T15:29:14;22.70;68.80
4840;DHT22;2434;48.486;7.964;2022-10-16T15:31:43;22.80;69.30
4840;DHT22;2434;48.486;7.964;2022-10-16T15:34:14;23.00;68.50
4840;DHT22;2434;48.486;7.964;2022-10-16T15:36:43;23.10;67.90
4840;DHT22;2434;48.486;7.964;2022-10-16T15:39:13;23.00;67.90
4840;DHT22;2434;48.486;7.964;2022-10-16T15:41:43;23.10;67.30
4840;DHT22;2434;48.486;7.964;2022-10-16T15:44:12;23.10;67.30
4840;DHT22;2434;48.486;7.964;2022-10-16T15:46:40;23.00;67.30
4840;DHT22;2434;48.486;7.964;2022-10-16T15:49:13;23.00;67.90
4840;DHT22;2434;48.486;7.964;2022-10-16T15:51:42;22.90;67.30
4840;DHT22;2434;48.486;7.964;2022-10-16T15:54:10;22.80;68.90
4840;DHT22;2434;48.486;7.964;2022-10-16T15:56:38;22.80;68.40
4840;DHT22;2434;48.486;7.964;2022-10-16T15:59:06;22.70;68.70
4840;DHT22;2434;48.486;7.964;2022-10-16T16:01:35;22.70;70.30
4840;DHT22;2434;48.486;7.964;2022-10-16T16:04:25;22.70;71.20
4840;DHT22;2434;48.486;7.964;2022-10-16T16:07:11;22.60;71.40
4840;DHT22;2434;48.486;7.964;2022-10-16T16:09:39;22.60;71.70
4840;DHT22;2434;48.486;7.964;2022-10-16T16:12:08;22.60;71.20
4840;DHT22;2434;48.486;7.964;2022-10-16T16:14:37;22.50;71.00
4840;DHT22;2434;48.486;7.964;2022-10-16T16:17:06;22.50;70.60
4840;DHT22;2434;48.486;7.964;2022-10-16T16:19:35;22.40;70.00
4840;DHT22;2434;48.486;7.964;2022-10-16T16:22:04;22.40;69.90
4840;DHT22;2434;48.486;7.964;2022-10-16T16:24:38;22.30;69.70
4840;DHT22;2434;48.486;7.964;2022-10-16T16:27:07;22.30;69.80
4840;DHT22;2434;48.486;7.964;2022-10-16T16:29:36;22.20;69.40
4840;DHT22;2434;48.486;7.964;2022-10-16T16:32:05;22.10;69.10
4840;DHT22;2434;48.486;7.964;2022-10-16T16:34:35;22.10;69.10
4840;DHT22;2434;48.486;7.964;2022-10-16T16:37:03;22.00;69.10
4840;DHT22;2434;48.486;7.964;2022-10-16T16:39:32;21.90;69.30
4840;DHT22;2434;48.486;7.964;2022-10-16T16:42:00;21.90;69.00
4840;DHT22;2434;48.486;7.964;2022-10-16T16:44:29;21.80;69.20
4840;DHT22;2434;48.486;7.964;2022-10-16T16:46:58;21.70;68.80